createdAt,value
2019-04-30T00:00:39.502Z,19.53
2019-04-30T00:03:18.030Z,19.80
2019-04-30T00:05:49.294Z,19.73
2019-04-30T00:08:16.253Z,20.87
2019-04-30T00:10:45.409Z,20.33
2019-04-30T00:13:20.486Z,21.87
2019-04-30T00:15:47.805Z,20.73
2019-04-30T00:18:15.908Z,22.70
2019-04-30T00:20:46.988Z,22.87
2019-04-30T00:23:17.820Z,24.93
2019-04-30T00:25:46.488Z,24.57
2019-04-30T00:28:15.669Z,22.77
2019-04-30T00:30:47.693Z,25.37
2019-04-30T00:33:22.178Z,23.83
2019-04-30T00:35:49.740Z,23.40
2019-04-30T00:38:16.799Z,24.03
2019-04-30T00:40:45.800Z,23.67
2019-04-30T00:43:15.576Z,24.83
2019-04-30T00:45:47.403Z,23.80
2019-04-30T00:48:19.307Z,26.10
2019-04-30T00:50:46.071Z,24.20
2019-04-30T00:53:16.634Z,22.57
2019-04-30T00:55:48.447Z,23.07
2019-04-30T00:58:17.502Z,22.67
2019-04-30T01:01:08.112Z,22.83
2019-04-30T01:03:39.472Z,22.67
2019-04-30T01:06:09.005Z,23.93
2019-04-30T01:08:37.956Z,23.63
2019-04-30T01:11:09.606Z,22.43
2019-04-30T01:13:39.247Z,22.63
2019-04-30T01:16:09.853Z,21.80
2019-04-30T01:18:39.086Z,22.87
2019-04-30T01:21:11.222Z,22.13
2019-04-30T01:23:43.160Z,23.00
2019-04-30T01:26:09.935Z,23.13
2019-04-30T01:28:38.985Z,22.00
2019-04-30T01:31:09.000Z,20.53
2019-04-30T01:33:39.006Z,21.70
2019-04-30T01:36:09.699Z,21.37
2019-04-30T01:38:40.338Z,21.10
2019-04-30T01:41:09.659Z,21.47
2019-04-30T01:43:38.689Z,19.33
2019-04-30T01:46:12.267Z,20.73
2019-04-30T01:48:39.329Z,20.40
2019-04-30T01:51:08.985Z,18.23
2019-04-30T01:53:38.667Z,19.47
2019-04-30T01:56:25.208Z,19.40
2019-04-30T01:58:59.389Z,18.77
2019-04-30T02:01:31.191Z,19.30
2019-04-30T02:03:59.674Z,19.07
2019-04-30T02:06:29.419Z,18.73
2019-04-30T02:08:59.371Z,18.63
2019-04-30T02:11:28.838Z,19.93
2019-04-30T02:13:59.127Z,20.03
2019-04-30T02:16:28.926Z,19.77
2019-04-30T02:18:59.698Z,18.33
2019-04-30T02:21:30.035Z,21.03
2019-04-30T02:23:59.330Z,18.57
2019-04-30T02:26:28.692Z,18.73
2019-04-30T02:28:59.441Z,18.02
2019-04-30T02:31:31.007Z,18.50
2019-04-30T02:34:22.258Z,19.50
2019-04-30T02:36:59.095Z,19.73
2019-04-30T02:39:30.132Z,20.63
2019-04-30T02:41:59.977Z,19.03
2019-04-30T02:44:31.125Z,19.20
2019-04-30T02:47:01.093Z,19.30
2019-04-30T02:49:31.865Z,19.20
2019-04-30T02:52:02.804Z,19.92
2019-04-30T02:54:33.366Z,18.40
2019-04-30T02:57:12.677Z,20.07
2019-04-30T03:00:00.253Z,19.13
2019-04-30T03:02:50.600Z,18.83
2019-04-30T03:05:20.455Z,18.47
2019-04-30T03:07:53.025Z,18.07
2019-04-30T03:10:20.200Z,18.13
2019-04-30T03:12:49.925Z,16.80
2019-04-30T03:15:22.710Z,18.70
2019-04-30T03:18:00.611Z,17.53
2019-04-30T03:20:44.608Z,17.47
2019-04-30T03:23:13.650Z,18.30
2019-04-30T03:25:42.461Z,18.57
2019-04-30T03:28:11.512Z,17.17
2019-04-30T03:30:41.820Z,16.27
2019-04-30T03:33:12.862Z,16.93
2019-04-30T03:35:47.421Z,17.80
2019-04-30T03:38:12.185Z,17.43
2019-04-30T03:40:41.122Z,17.20
2019-04-30T03:43:10.481Z,16.47
2019-04-30T03:45:40.246Z,18.07
2019-04-30T03:48:10.317Z,17.77
2019-04-30T03:50:50.333Z,16.27
2019-04-30T03:53:10.437Z,16.87
2019-04-30T03:55:40.137Z,17.10
2019-04-30T03:58:09.459Z,16.73
2019-04-30T04:00:51.672Z,15.80
2019-04-30T04:03:20.488Z,17.70
2019-04-30T04:05:54.885Z,16.40
2019-04-30T04:08:49.037Z,16.80
2019-04-30T04:11:24.649Z,16.87
2019-04-30T04:13:53.685Z,16.37
2019-04-30T04:16:22.589Z,17.00
2019-04-30T04:18:51.456Z,16.73
2019-04-30T04:21:20.816Z,16.20
2019-04-30T04:23:49.861Z,15.77
2019-04-30T04:26:20.291Z,15.10
2019-04-30T04:28:49.749Z,15.10
2019-04-30T04:31:19.362Z,16.03
2019-04-30T04:33:49.644Z,16.33
2019-04-30T04:36:20.184Z,14.13
2019-04-30T04:38:50.656Z,16.07
2019-04-30T04:41:19.952Z,15.37
2019-04-30T04:43:50.379Z,15.67
2019-04-30T04:46:20.519Z,15.57
2019-04-30T04:48:49.676Z,15.27
2019-04-30T04:51:33.286Z,17.00
2019-04-30T04:53:50.007Z,16.17
2019-04-30T04:56:19.217Z,16.90
2019-04-30T04:58:50.184Z,15.07
2019-04-30T05:01:20.399Z,15.90
2019-04-30T05:03:49.548Z,16.67
2019-04-30T05:06:22.005Z,16.47
2019-04-30T05:08:49.409Z,16.97
2019-04-30T05:11:19.240Z,17.07
2019-04-30T05:13:49.047Z,16.70
2019-04-30T05:16:19.099Z,16.20
2019-04-30T05:18:48.799Z,16.00
2019-04-30T05:21:18.811Z,17.60
2019-04-30T05:23:49.276Z,18.63
2019-04-30T05:26:19.114Z,18.23
2019-04-30T05:28:51.155Z,17.57
2019-04-30T05:31:21.062Z,17.90
2019-04-30T05:33:49.469Z,17.27
2019-04-30T05:36:19.154Z,16.60
2019-04-30T05:38:48.716Z,16.80
2019-04-30T05:41:19.308Z,17.07
2019-04-30T05:43:48.890Z,17.27
2019-04-30T05:46:19.626Z,16.20
2019-04-30T05:48:49.536Z,17.23
2019-04-30T05:51:19.381Z,17.10
2019-04-30T05:53:49.263Z,15.33
2019-04-30T05:56:19.295Z,16.33
2019-04-30T05:58:49.466Z,15.80
2019-04-30T06:01:19.612Z,14.70
2019-04-30T06:03:48.625Z,15.80
2019-04-30T06:06:19.361Z,16.63
2019-04-30T06:09:04.608Z,15.50
2019-04-30T06:11:43.524Z,13.67
2019-04-30T06:14:28.635Z,15.57
2019-04-30T06:17:06.675Z,15.50
2019-04-30T06:19:36.650Z,14.57
2019-04-30T06:22:10.104Z,14.70
2019-04-30T06:24:36.735Z,15.07
2019-04-30T06:27:05.924Z,14.97
2019-04-30T06:29:35.501Z,13.60
2019-04-30T06:32:04.986Z,14.37
2019-04-30T06:34:34.502Z,14.10
2019-04-30T06:37:03.870Z,15.43
2019-04-30T06:39:32.806Z,14.23
2019-04-30T06:42:06.926Z,14.83
2019-04-30T06:44:38.955Z,16.60
2019-04-30T06:47:04.519Z,15.30
2019-04-30T06:49:34.410Z,15.60
2019-04-30T06:52:03.294Z,15.60
2019-04-30T06:54:32.301Z,16.70
2019-04-30T06:57:01.293Z,15.10
2019-04-30T06:59:30.290Z,14.90
2019-04-30T07:01:59.386Z,16.10
2019-04-30T07:04:29.321Z,14.33
2019-04-30T07:06:59.038Z,14.50
2019-04-30T07:09:48.886Z,15.47
2019-04-30T07:12:25.512Z,15.03
2019-04-30T07:14:44.825Z,15.00
2019-04-30T07:17:13.889Z,15.33
2019-04-30T07:19:54.221Z,13.87
2019-04-30T07:22:19.048Z,15.03
2019-04-30T07:24:50.595Z,14.63
2019-04-30T07:27:24.197Z,15.67
2019-04-30T07:29:57.325Z,15.10
2019-04-30T07:32:30.587Z,14.60
2019-04-30T07:34:59.606Z,15.77
2019-04-30T07:37:29.423Z,13.73
2019-04-30T07:39:59.028Z,13.47
2019-04-30T07:42:29.453Z,11.53
2019-04-30T07:45:00.694Z,11.27
2019-04-30T07:47:29.711Z,10.27
2019-04-30T07:50:00.758Z,10.90
2019-04-30T07:52:33.125Z,11.30
2019-04-30T07:55:00.803Z,8.87
2019-04-30T07:57:32.481Z,9.27
2019-04-30T08:00:00.738Z,9.60
2019-04-30T08:02:38.039Z,8.80
2019-04-30T08:05:11.181Z,9.93
2019-04-30T08:07:40.222Z,8.73
2019-04-30T08:10:11.740Z,7.77
2019-04-30T08:12:43.042Z,9.07
2019-04-30T08:15:11.322Z,8.80
2019-04-30T08:17:40.237Z,9.80
2019-04-30T08:20:09.539Z,9.33
2019-04-30T08:22:40.885Z,8.67
2019-04-30T08:25:09.738Z,9.30
2019-04-30T08:27:39.294Z,8.30
2019-04-30T08:30:20.666Z,9.33
2019-04-30T08:32:39.410Z,8.70
2019-04-30T08:35:09.837Z,8.73
2019-04-30T08:37:40.143Z,7.87
2019-04-30T08:40:09.223Z,8.80
2019-04-30T08:42:40.287Z,8.97
2019-04-30T08:45:09.606Z,8.03
2019-04-30T08:47:39.261Z,8.17
2019-04-30T08:50:09.749Z,8.13
2019-04-30T08:52:39.411Z,7.47
2019-04-30T08:55:15.946Z,7.07
2019-04-30T08:57:39.673Z,7.50
2019-04-30T09:00:11.790Z,6.63
2019-04-30T09:02:40.296Z,6.97
2019-04-30T09:05:18.445Z,6.23
2019-04-30T09:07:48.686Z,5.70
2019-04-30T09:10:19.259Z,5.83
2019-04-30T09:12:49.601Z,5.20
2019-04-30T09:15:19.321Z,5.17
2019-04-30T09:18:00.841Z,5.80
2019-04-30T09:20:19.506Z,4.80
2019-04-30T09:22:49.626Z,4.43
2019-04-30T09:25:19.436Z,4.87
2019-04-30T09:27:48.873Z,4.70
2019-04-30T09:30:18.862Z,4.33
2019-04-30T09:32:49.919Z,5.03
2019-04-30T09:35:19.589Z,4.83
2019-04-30T09:37:49.621Z,5.33
2019-04-30T09:40:21.193Z,4.50
2019-04-30T09:42:50.135Z,5.03
2019-04-30T09:45:19.718Z,3.97
2019-04-30T09:47:50.520Z,4.67
2019-04-30T09:50:19.738Z,4.30
2019-04-30T09:52:50.084Z,4.33
2019-04-30T09:55:19.424Z,4.27
2019-04-30T09:57:48.934Z,4.90
2019-04-30T10:00:19.392Z,5.10
2019-04-30T10:02:48.918Z,3.93
2019-04-30T10:05:19.684Z,3.50
2019-04-30T10:07:49.385Z,3.90
2019-04-30T10:10:21.839Z,3.53
2019-04-30T10:12:50.774Z,3.67
2019-04-30T10:15:49.964Z,6.23
2019-04-30T10:18:18.997Z,4.87
2019-04-30T10:20:48.038Z,5.27
2019-04-30T10:23:16.994Z,3.33
2019-04-30T10:25:46.363Z,2.97
2019-04-30T10:28:15.474Z,3.47
2019-04-30T10:33:48.636Z,2.80
2019-04-30T10:36:18.943Z,3.20
2019-04-30T10:38:49.430Z,3.83
2019-04-30T10:41:18.916Z,3.90
2019-04-30T10:43:49.273Z,2.93
2019-04-30T10:46:18.400Z,3.13
2019-04-30T10:48:47.450Z,4.37
2019-04-30T10:51:16.438Z,3.63
2019-04-30T10:53:45.462Z,3.73
2019-04-30T10:56:14.406Z,3.50
2019-04-30T10:58:43.433Z,3.80
2019-04-30T11:01:12.338Z,3.70
2019-04-30T11:03:42.919Z,3.57
2019-04-30T11:06:12.115Z,3.60
2019-04-30T11:08:41.127Z,3.87
2019-04-30T11:11:10.104Z,4.27
2019-04-30T11:13:39.378Z,4.80
2019-04-30T11:16:15.131Z,4.60
2019-04-30T11:18:39.173Z,3.83
2019-04-30T11:21:09.747Z,3.23
2019-04-30T11:23:39.515Z,4.10
2019-04-30T11:26:09.474Z,4.03
2019-04-30T11:28:39.039Z,3.70
2019-04-30T11:31:26.282Z,3.73
2019-04-30T11:33:56.557Z,4.27
2019-04-30T11:36:25.479Z,3.77
2019-04-30T11:38:54.485Z,3.73
2019-04-30T11:41:31.034Z,3.10
2019-04-30T11:43:54.369Z,3.80
2019-04-30T11:47:04.649Z,3.10
2019-04-30T11:49:33.601Z,4.57
2019-04-30T11:52:02.635Z,3.57
2019-04-30T11:54:31.587Z,3.50
2019-04-30T11:57:00.519Z,3.93
2019-04-30T11:59:29.857Z,3.33
2019-04-30T12:02:00.670Z,3.83
2019-04-30T12:04:29.976Z,3.00
2019-04-30T12:07:01.739Z,2.80
2019-04-30T12:09:49.658Z,2.63
2019-04-30T12:12:19.015Z,2.57
2019-04-30T12:14:49.420Z,2.63
2019-04-30T12:17:18.461Z,3.33
2019-04-30T12:19:48.844Z,3.20
2019-04-30T12:22:20.007Z,3.40
2019-04-30T12:24:49.961Z,3.40
2019-04-30T12:27:19.459Z,2.93
2019-04-30T12:29:49.563Z,3.30
2019-04-30T12:32:19.203Z,3.30
2019-04-30T12:34:49.294Z,2.87
2019-04-30T12:37:19.088Z,2.93
2019-04-30T12:39:49.453Z,3.13
2019-04-30T12:42:18.954Z,3.03
2019-04-30T12:44:49.556Z,2.33
2019-04-30T12:47:21.736Z,2.80
2019-04-30T12:50:00.937Z,2.40
2019-04-30T12:52:51.331Z,3.10
2019-04-30T12:55:33.652Z,2.43
2019-04-30T12:58:02.985Z,3.10
2019-04-30T13:00:32.275Z,3.40
2019-04-30T13:03:01.167Z,2.90
2019-04-30T13:05:30.098Z,2.80
2019-04-30T13:08:00.446Z,3.13
2019-04-30T13:10:30.150Z,3.00
2019-04-30T13:12:59.937Z,3.00
2019-04-30T13:15:29.792Z,2.73
2019-04-30T13:17:59.022Z,2.70
2019-04-30T13:20:29.356Z,2.57
2019-04-30T13:22:58.906Z,3.30
2019-04-30T13:25:35.007Z,3.13
2019-04-30T13:28:03.517Z,2.33
2019-04-30T13:30:32.599Z,3.03
2019-04-30T13:33:13.118Z,3.30
2019-04-30T13:35:42.009Z,2.90
2019-04-30T13:38:25.280Z,3.03
2019-04-30T13:41:09.449Z,2.87
2019-04-30T13:43:59.071Z,2.90
2019-04-30T13:46:28.512Z,2.97
2019-04-30T13:48:57.993Z,2.93
2019-04-30T13:51:26.910Z,2.80
2019-04-30T13:53:55.718Z,3.77
2019-04-30T13:56:24.740Z,2.33
2019-04-30T13:58:53.769Z,3.07
2019-04-30T14:01:22.759Z,2.70
2019-04-30T14:04:08.889Z,3.20
2019-04-30T14:06:42.578Z,2.90
2019-04-30T14:09:23.462Z,3.10
2019-04-30T14:11:52.480Z,2.83
2019-04-30T14:14:21.433Z,2.70
2019-04-30T14:16:50.411Z,2.80
2019-04-30T14:19:19.646Z,2.90
2019-04-30T14:21:49.388Z,2.83
2019-04-30T14:24:19.301Z,2.83
2019-04-30T14:26:49.131Z,3.63
2019-04-30T14:29:18.291Z,3.03
2019-04-30T14:31:48.787Z,3.77
2019-04-30T14:34:18.614Z,3.47
2019-04-30T14:36:49.268Z,3.00
2019-04-30T14:39:20.330Z,3.73
2019-04-30T14:41:52.110Z,3.67
2019-04-30T14:44:23.827Z,3.00
2019-04-30T14:47:13.027Z,4.07
2019-04-30T14:50:13.651Z,3.37
2019-04-30T14:52:49.239Z,3.53
2019-04-30T14:55:55.395Z,3.70
2019-04-30T14:58:47.757Z,3.47
2019-04-30T15:01:30.576Z,3.20
2019-04-30T15:03:59.869Z,3.47
2019-04-30T15:06:28.781Z,3.47
2019-04-30T15:08:59.147Z,3.87
2019-04-30T15:11:28.827Z,3.67
2019-04-30T15:13:59.167Z,3.47
2019-04-30T15:16:28.266Z,3.80
2019-04-30T15:18:57.109Z,3.98
2019-04-30T15:21:26.093Z,4.40
2019-04-30T15:24:20.250Z,4.23
2019-04-30T15:26:57.860Z,4.60
2019-04-30T15:29:19.999Z,3.60
2019-04-30T15:31:49.040Z,4.07
2019-04-30T15:34:19.234Z,4.40
2019-04-30T15:36:49.248Z,4.30
2019-04-30T15:39:41.445Z,5.03
2019-04-30T15:42:11.816Z,4.87
2019-04-30T15:44:45.489Z,4.70
2019-04-30T15:47:11.865Z,4.17
2019-04-30T15:49:40.796Z,4.80
2019-04-30T15:52:16.348Z,4.80
2019-04-30T15:54:45.342Z,4.63
2019-04-30T15:57:14.452Z,5.73
2019-04-30T15:59:44.469Z,5.30
2019-04-30T16:02:28.738Z,4.60
2019-04-30T16:05:19.801Z,4.73
2019-04-30T16:07:58.807Z,4.97
2019-04-30T16:10:49.636Z,4.77
2019-04-30T16:13:20.915Z,5.53
2019-04-30T16:15:49.878Z,5.13
2019-04-30T16:18:19.652Z,4.70
2019-04-30T16:20:49.842Z,4.17
2019-04-30T16:23:19.250Z,5.00
2019-04-30T16:25:48.418Z,4.33
2019-04-30T16:28:19.470Z,4.80
2019-04-30T16:30:48.197Z,4.90
2019-04-30T16:33:19.359Z,5.10
2019-04-30T16:35:50.853Z,5.00
2019-04-30T16:38:20.899Z,4.60
2019-04-30T16:40:49.415Z,4.93
2019-04-30T16:43:20.258Z,4.90
2019-04-30T16:45:49.651Z,4.90
2019-04-30T16:48:19.342Z,4.87
2019-04-30T16:50:51.252Z,4.63
2019-04-30T16:53:19.806Z,4.67
2019-04-30T16:55:50.652Z,4.50
2019-04-30T16:58:19.763Z,3.80
2019-04-30T17:00:49.336Z,4.67
2019-04-30T17:03:30.969Z,4.23
2019-04-30T17:06:05.903Z,4.00
2019-04-30T17:08:39.744Z,4.77
2019-04-30T17:11:28.265Z,4.20
2019-04-30T17:14:03.135Z,3.93
2019-04-30T17:16:31.951Z,3.97
2019-04-30T17:19:00.886Z,4.57
2019-04-30T17:21:29.915Z,4.63
2019-04-30T17:23:58.987Z,4.80
2019-04-30T17:26:27.904Z,4.20
2019-04-30T17:28:56.915Z,4.77
2019-04-30T17:31:25.991Z,4.10
2019-04-30T17:33:54.880Z,4.53
2019-04-30T17:36:23.994Z,5.13
2019-04-30T17:38:53.032Z,4.60
2019-04-30T17:41:21.853Z,4.53
2019-04-30T17:43:50.817Z,4.53
2019-04-30T17:46:20.202Z,4.30
2019-04-30T17:48:49.585Z,5.20
2019-04-30T17:51:18.680Z,5.10
2019-04-30T17:54:05.606Z,5.03
2019-04-30T17:56:35.445Z,5.33
2019-04-30T17:59:04.403Z,5.37
2019-04-30T18:01:33.358Z,4.87
2019-04-30T18:04:02.373Z,5.20
2019-04-30T18:06:31.309Z,5.70
2019-04-30T18:09:00.265Z,5.13
2019-04-30T18:11:29.641Z,5.37
2019-04-30T18:13:59.082Z,5.77
2019-04-30T18:16:28.672Z,5.60
2019-04-30T18:19:08.822Z,6.53
2019-04-30T18:21:54.047Z,5.00
2019-04-30T18:24:30.712Z,6.07
2019-04-30T18:27:03.835Z,5.23
2019-04-30T18:29:32.950Z,5.30
2019-04-30T18:32:02.002Z,5.10
2019-04-30T18:34:31.689Z,5.57
2019-04-30T18:37:00.553Z,6.37
2019-04-30T18:39:29.636Z,6.30
2019-04-30T18:41:58.581Z,5.87
2019-04-30T18:44:29.463Z,6.00
2019-04-30T18:46:59.039Z,6.43
2019-04-30T18:49:28.711Z,6.30
2019-04-30T18:51:59.047Z,6.30
2019-04-30T18:54:28.970Z,5.43
2019-04-30T18:56:58.915Z,5.60
2019-04-30T18:59:32.610Z,5.63
2019-04-30T19:02:01.326Z,5.97
2019-04-30T19:04:30.311Z,6.23
2019-04-30T19:07:02.306Z,5.83
2019-04-30T19:09:41.880Z,6.60
2019-04-30T19:12:28.949Z,6.67
2019-04-30T19:15:13.528Z,6.93
2019-04-30T19:18:13.721Z,6.93
2019-04-30T19:20:45.697Z,7.70
2019-04-30T19:23:14.595Z,7.10
2019-04-30T19:25:43.514Z,6.27
2019-04-30T19:28:14.526Z,7.10
2019-04-30T19:30:54.953Z,6.60
2019-04-30T19:33:14.044Z,6.83
2019-04-30T19:35:43.550Z,6.63
2019-04-30T19:38:12.494Z,6.77
2019-04-30T19:40:41.639Z,6.37
2019-04-30T19:43:11.240Z,6.23
2019-04-30T19:45:40.125Z,6.30
2019-04-30T19:48:09.113Z,6.63
2019-04-30T19:50:38.018Z,7.37
2019-04-30T19:53:08.727Z,7.17
2019-04-30T19:55:39.400Z,7.20
2019-04-30T19:58:08.395Z,7.50
2019-04-30T20:00:38.988Z,7.10
2019-04-30T20:03:08.868Z,6.83
2019-04-30T20:05:39.435Z,6.23
2019-04-30T20:08:10.785Z,6.23
2019-04-30T20:10:39.876Z,6.80
2019-04-30T20:13:10.838Z,6.40
2019-04-30T20:15:39.661Z,7.40
2019-04-30T20:18:09.009Z,6.43
2019-04-30T20:20:39.887Z,6.40
2019-04-30T20:23:08.834Z,6.77
2019-04-30T20:25:37.839Z,6.00
2019-04-30T20:28:06.936Z,7.37
2019-04-30T20:30:36.120Z,6.60
2019-04-30T20:33:05.094Z,7.70
2019-04-30T20:35:34.124Z,6.70
2019-04-30T20:38:34.120Z,7.63
2019-04-30T20:41:03.954Z,6.57
2019-04-30T20:43:32.956Z,7.07
2019-04-30T20:46:01.958Z,7.70
2019-04-30T20:48:30.862Z,6.90
2019-04-30T20:51:01.420Z,7.27
2019-04-30T20:53:30.325Z,7.70
2019-04-30T20:55:59.423Z,7.10
2019-04-30T20:58:28.351Z,6.90
2019-04-30T21:01:03.989Z,7.37
2019-04-30T21:03:29.580Z,7.07
2019-04-30T21:06:00.538Z,7.03
2019-04-30T21:08:29.425Z,8.53
2019-04-30T21:10:59.362Z,8.10
2019-04-30T21:13:29.477Z,7.80
2019-04-30T21:15:59.514Z,8.70
2019-04-30T21:18:32.039Z,7.40
2019-04-30T21:20:59.685Z,7.93
2019-04-30T21:23:29.383Z,7.17
2019-04-30T21:25:58.939Z,7.67
2019-04-30T21:28:29.713Z,7.27
2019-04-30T21:31:02.040Z,7.97
2019-04-30T21:33:38.481Z,7.83
2019-04-30T21:36:14.892Z,8.73
2019-04-30T21:38:44.015Z,8.30
2019-04-30T21:41:13.012Z,9.37
2019-04-30T21:43:42.054Z,9.40
2019-04-30T21:46:10.872Z,9.57
2019-04-30T21:48:39.698Z,8.77
2019-04-30T21:51:09.391Z,9.07
2019-04-30T21:53:39.622Z,7.97
2019-04-30T21:56:08.709Z,10.03
2019-04-30T21:58:39.242Z,8.60
2019-04-30T22:01:23.006Z,7.63
2019-04-30T22:03:52.175Z,7.03
2019-04-30T22:06:21.209Z,8.87
2019-04-30T22:08:50.230Z,10.00
2019-04-30T22:11:19.900Z,14.53
2019-04-30T22:13:49.383Z,13.37
2019-04-30T22:16:20.320Z,11.77
2019-04-30T22:18:49.074Z,11.13
2019-04-30T22:21:17.983Z,11.70
2019-04-30T22:23:46.868Z,10.70
2019-04-30T22:26:15.770Z,11.47
2019-04-30T22:28:44.674Z,11.70
2019-04-30T22:31:13.624Z,10.10
2019-04-30T22:33:42.524Z,10.87
2019-04-30T22:36:31.526Z,11.00
2019-04-30T22:39:34.904Z,11.77
2019-04-30T22:42:29.578Z,11.73
2019-04-30T22:44:58.487Z,11.73
2019-04-30T22:47:27.374Z,12.00
2019-04-30T22:49:56.263Z,11.87
2019-04-30T22:52:25.289Z,11.20
2019-04-30T22:54:54.345Z,12.10
2019-04-30T22:57:23.345Z,12.57
2019-04-30T22:59:52.154Z,12.90
2019-04-30T23:02:42.927Z,12.27
2019-04-30T23:05:14.923Z,12.87
2019-04-30T23:07:43.849Z,11.87
2019-04-30T23:10:12.871Z,12.30
2019-04-30T23:12:41.811Z,12.27
2019-04-30T23:15:10.886Z,11.90
2019-04-30T23:17:39.775Z,12.27
2019-04-30T23:20:09.565Z,12.03
2019-04-30T23:22:38.504Z,10.97
2019-04-30T23:25:07.861Z,12.23
2019-04-30T23:27:36.773Z,12.13
2019-04-30T23:30:07.344Z,12.13
2019-04-30T23:32:36.259Z,11.80
2019-04-30T23:35:05.549Z,12.10
2019-04-30T23:37:34.471Z,13.62
2019-04-30T23:40:26.589Z,12.30
2019-04-30T23:42:55.766Z,14.20
2019-04-30T23:45:25.391Z,12.63
2019-04-30T23:47:54.319Z,12.37
2019-04-30T23:50:23.213Z,12.93
2019-04-30T23:52:52.316Z,14.17
2019-04-30T23:55:21.198Z,12.83
2019-04-30T23:57:50.181Z,11.43
